sensor_id;sensor_type;location;lat;lon;timestamp;temperature;humidity
38860;DHT22;24609;48.316;16.174;2023-06-14T00:01:20;9.70;99.90
38860;DHT22;24609;48.316;16.174;2023-06-14T00:03:47;9.70;99.90
38860;DHT22;24609;48.316;16.174;2023-06-14T00:06:14;9.70;99.90
38860;DHT22;24609;48.316;16.174;2023-06-14T00:08:40;9.80;99.90
38860;DHT22;24609;48.316;16.174;2023-06-14T00:11:06;9.70;99.90
38860;DHT22;24609;48.316;16.174;2023-06-14T00:13:32;9.70;99.90
38860;DHT22;24609;48.316;16.174;2023-06-14T00:15:58;9.70;99.90
38860;DHT22;24609;48.316;16.174;2023-06-14T00:18:23;9.60;99.90
38860;DHT22;24609;48.316;16.174;2023-06-14T00:20:50;9.60;99.90
38860;DHT22;24609;48.316;16.174;2023-06-14T00:23:17;9.50;99.90
38860;DHT22;24609;48.316;16.174;2023-06-14T00:25:43;9.50;99.90
38860;DHT22;24609;48.316;16.174;2023-06-14T00:28:08;9.50;99.90
38860;DHT22;24609;48.316;16.174;2023-06-14T00:30:34;9.50;99.90
38860;DHT22;24609;48.316;16.174;2023-06-14T00:33:00;9.60;99.90
38860;DHT22;24609;48.316;16.174;2023-06-14T00:35:26;9.60;99.90
38860;DHT22;24609;48.316;16.174;2023-06-14T00:37:51;9.60;99.90
38860;DHT22;24609;48.316;16.174;2023-06-14T00:40:17;9.60;99.90
38860;DHT22;24609;48.316;16.174;2023-06-14T00:42:43;9.60;99.90
38860;DHT22;24609;48.316;16.174;2023-06-14T00:45:09;9.50;99.90
38860;DHT22;24609;48.316;16.174;2023-06-14T00:47:36;9.50;99.90
38860;DHT22;24609;48.316;16.174;2023-06-14T00:50:03;9.50;99.90
38860;DHT22;24609;48.316;16.174;2023-06-14T00:52:32;9.50;99.90
38860;DHT22;24609;48.316;16.174;2023-06-14T00:54:58;9.60;99.90
38860;DHT22;24609;48.316;16.174;2023-06-14T00:57:24;9.50;99.90
38860;DHT22;24609;48.316;16.174;2023-06-14T00:59:50;9.50;99.90
38860;DHT22;24609;48.316;16.174;2023-06-14T01:02:17;9.40;99.90
38860;DHT22;24609;48.316;16.174;2023-06-14T01:04:46;9.40;99.90
38860;DHT22;24609;48.316;16.174;2023-06-14T01:15:36;9.30;99.90
38860;DHT22;24609;48.316;16.174;2023-06-14T01:18:04;9.30;99.90
38860;DHT22;24609;48.316;16.174;2023-06-14T01:20:32;9.40;99.90
38860;DHT22;24609;48.316;16.174;2023-06-14T01:22:59;9.40;99.90
38860;DHT22;24609;48.316;16.174;2023-06-14T01:25:25;9.40;99.90
38860;DHT22;24609;48.316;16.174;2023-06-14T01:28:00;9.40;99.90
38860;DHT22;24609;48.316;16.174;2023-06-14T01:30:28;9.30;99.90
38860;DHT22;24609;48.316;16.174;2023-06-14T01:32:55;9.30;99.90
38860;DHT22;24609;48.316;16.174;2023-06-14T01:35:21;9.20;99.90
38860;DHT22;24609;48.316;16.174;2023-06-14T01:37:48;9.30;99.90
38860;DHT22;24609;48.316;16.174;2023-06-14T01:40:15;9.30;99.90
38860;DHT22;24609;48.316;16.174;2023-06-14T01:42:42;9.20;99.90
38860;DHT22;24609;48.316;16.174;2023-06-14T01:45:09;9.30;99.90
38860;DHT22;24609;48.316;16.174;2023-06-14T01:47:36;9.40;99.90
38860;DHT22;24609;48.316;16.174;2023-06-14T01:50:03;9.30;99.90
38860;DHT22;24609;48.316;16.174;2023-06-14T01:52:29;9.30;99.90
38860;DHT22;24609;48.316;16.174;2023-06-14T01:54:55;9.20;99.90
38860;DHT22;24609;48.316;16.174;2023-06-14T01:57:22;9.30;99.90
38860;DHT22;24609;48.316;16.174;2023-06-14T01:59:48;9.30;99.90
38860;DHT22;24609;48.316;16.174;2023-06-14T02:02:14;9.30;99.90
38860;DHT22;24609;48.316;16.174;2023-06-14T02:04:41;9.30;99.90
38860;DHT22;24609;48.316;16.174;2023-06-14T02:07:07;9.30;99.90
38860;DHT22;24609;48.316;16.174;2023-06-14T02:09:33;9.30;99.90
38860;DHT22;24609;48.316;16.174;2023-06-14T02:11:59;9.30;99.90
38860;DHT22;24609;48.316;16.174;2023-06-14T02:14:25;9.30;99.90
38860;DHT22;24609;48.316;16.174;2023-06-14T02:16:51;9.40;99.90
38860;DHT22;24609;48.316;16.174;2023-06-14T02:19:19;9.50;99.90
38860;DHT22;24609;48.316;16.174;2023-06-14T02:21:45;9.60;99.90
38860;DHT22;24609;48.316;16.174;2023-06-14T02:24:11;9.60;99.90
38860;DHT22;24609;48.316;16.174;2023-06-14T02:26:37;9.70;99.90
38860;DHT22;24609;48.316;16.174;2023-06-14T02:29:07;9.70;99.90
38860;DHT22;24609;48.316;16.174;2023-06-14T02:31:35;9.70;99.90
38860;DHT22;24609;48.316;16.174;2023-06-14T02:34:01;9.80;99.90
38860;DHT22;24609;48.316;16.174;2023-06-14T02:36:27;9.70;99.90
38860;DHT22;24609;48.316;16.174;2023-06-14T02:38:55;9.80;99.90
38860;DHT22;24609;48.316;16.174;2023-06-14T02:41:23;9.70;99.90
38860;DHT22;24609;48.316;16.174;2023-06-14T02:43:48;9.70;99.90
38860;DHT22;24609;48.316;16.174;2023-06-14T02:46:14;9.70;99.90
38860;DHT22;24609;48.316;16.174;2023-06-14T02:48:40;9.80;99.90
38860;DHT22;24609;48.316;16.174;2023-06-14T02:51:06;9.80;99.90
38860;DHT22;24609;48.316;16.174;2023-06-14T02:53:34;9.90;99.90
38860;DHT22;24609;48.316;16.174;2023-06-14T02:55:59;9.90;99.90
38860;DHT22;24609;48.316;16.174;2023-06-14T02:58:26;9.90;99.90
38860;DHT22;24609;48.316;16.174;2023-06-14T03:00:52;9.90;99.90
38860;DHT22;24609;48.316;16.174;2023-06-14T03:03:21;10.00;99.90
38860;DHT22;24609;48.316;16.174;2023-06-14T03:05:47;10.00;99.90
38860;DHT22;24609;48.316;16.174;2023-06-14T03:08:15;10.10;99.90
38860;DHT22;24609;48.316;16.174;2023-06-14T03:10:51;10.10;99.90
38860;DHT22;24609;48.316;16.174;2023-06-14T03:13:16;10.10;99.90
38860;DHT22;24609;48.316;16.174;2023-06-14T03:15:42;10.10;99.90
38860;DHT22;24609;48.316;16.174;2023-06-14T03:18:10;10.10;99.90
38860;DHT22;24609;48.316;16.174;2023-06-14T03:20:37;10.00;99.90
38860;DHT22;24609;48.316;16.174;2023-06-14T03:23:03;10.00;99.90
38860;DHT22;24609;48.316;16.174;2023-06-14T03:25:31;10.00;99.90
38860;DHT22;24609;48.316;16.174;2023-06-14T03:27:57;10.00;99.90
38860;DHT22;24609;48.316;16.174;2023-06-14T03:30:23;10.10;99.90
38860;DHT22;24609;48.316;16.174;2023-06-14T03:32:49;10.20;99.90
38860;DHT22;24609;48.316;16.174;2023-06-14T03:35:16;10.20;99.90
38860;DHT22;24609;48.316;16.174;2023-06-14T03:37:45;10.20;99.90
38860;DHT22;24609;48.316;16.174;2023-06-14T03:40:15;10.30;99.90
38860;DHT22;24609;48.316;16.174;2023-06-14T03:42:41;10.50;99.90
38860;DHT22;24609;48.316;16.174;2023-06-14T03:45:07;10.50;99.90
38860;DHT22;24609;48.316;16.174;2023-06-14T03:47:34;10.70;99.90
38860;DHT22;24609;48.316;16.174;2023-06-14T03:50:00;10.80;99.90
38860;DHT22;24609;48.316;16.174;2023-06-14T03:52:26;11.00;99.90
38860;DHT22;24609;48.316;16.174;2023-06-14T03:54:52;11.20;99.90
38860;DHT22;24609;48.316;16.174;2023-06-14T03:57:18;11.40;99.90
38860;DHT22;24609;48.316;16.174;2023-06-14T03:59:44;11.50;99.90
38860;DHT22;24609;48.316;16.174;2023-06-14T04:02:10;11.40;99.90
38860;DHT22;24609;48.316;16.174;2023-06-14T04:04:36;11.40;99.90
38860;DHT22;24609;48.316;16.174;2023-06-14T04:07:02;11.50;99.90
38860;DHT22;24609;48.316;16.174;2023-06-14T04:09:31;11.70;99.90
38860;DHT22;24609;48.316;16.174;2023-06-14T04:11:57;11.80;99.90
38860;DHT22;24609;48.316;16.174;2023-06-14T04:14:23;11.80;99.90
38860;DHT22;24609;48.316;16.174;2023-06-14T04:16:49;11.70;99.90
38860;DHT22;24609;48.316;16.174;2023-06-14T04:19:15;11.60;99.90
38860;DHT22;24609;48.316;16.174;2023-06-14T04:21:41;11.70;99.90
38860;DHT22;24609;48.316;16.174;2023-06-14T04:24:07;12.00;99.90
38860;DHT22;24609;48.316;16.174;2023-06-14T04:26:38;12.20;99.90
38860;DHT22;24609;48.316;16.174;2023-06-14T04:29:05;12.30;99.90
38860;DHT22;24609;48.316;16.174;2023-06-14T04:31:31;12.50;99.90
38860;DHT22;24609;48.316;16.174;2023-06-14T04:34:03;12.90;99.90
38860;DHT22;24609;48.316;16.174;2023-06-14T04:36:32;13.10;99.90
38860;DHT22;24609;48.316;16.174;2023-06-14T04:39:00;13.30;99.90
38860;DHT22;24609;48.316;16.174;2023-06-14T04:41:30;13.60;99.90
38860;DHT22;24609;48.316;16.174;2023-06-14T04:44:00;13.90;99.90
38860;DHT22;24609;48.316;16.174;2023-06-14T04:46:29;13.70;99.90
38860;DHT22;24609;48.316;16.174;2023-06-14T04:48:55;13.40;99.90
38860;DHT22;24609;48.316;16.174;2023-06-14T04:51:22;13.10;99.90
38860;DHT22;24609;48.316;16.174;2023-06-14T04:53:56;13.10;99.90
38860;DHT22;24609;48.316;16.174;2023-06-14T04:56:26;13.10;99.90
38860;DHT22;24609;48.316;16.174;2023-06-14T04:58:52;13.00;99.90
38860;DHT22;24609;48.316;16.174;2023-06-14T05:01:19;13.00;99.90
38860;DHT22;24609;48.316;16.174;2023-06-14T05:03:46;13.30;99.90
38860;DHT22;24609;48.316;16.174;2023-06-14T05:06:15;13.60;99.90
38860;DHT22;24609;48.316;16.174;2023-06-14T05:08:41;14.10;68.00
38860;DHT22;24609;48.316;16.174;2023-06-14T05:11:06;14.30;1.00
38860;DHT22;24609;48.316;16.174;2023-06-14T05:13:32;14.80;1.00
38860;DHT22;24609;48.316;16.174;2023-06-14T05:15:59;15.10;99.90
38860;DHT22;24609;48.316;16.174;2023-06-14T05:18:26;15.40;99.90
38860;DHT22;24609;48.316;16.174;2023-06-14T05:20:51;16.10;99.90
38860;DHT22;24609;48.316;16.174;2023-06-14T05:23:17;16.60;99.90
38860;DHT22;24609;48.316;16.174;2023-06-14T05:25:44;17.20;99.90
38860;DHT22;24609;48.316;16.174;2023-06-14T05:28:10;17.80;99.90
38860;DHT22;24609;48.316;16.174;2023-06-14T05:30:38;17.60;99.90
38860;DHT22;24609;48.316;16.174;2023-06-14T05:33:03;18.00;99.90
38860;DHT22;24609;48.316;16.174;2023-06-14T05:35:29;18.00;99.90
38860;DHT22;24609;48.316;16.174;2023-06-14T05:37:55;18.10;99.90
38860;DHT22;24609;48.316;16.174;2023-06-14T05:40:20;18.50;99.90
38860;DHT22;24609;48.316;16.174;2023-06-14T05:42:46;18.30;99.90
38860;DHT22;24609;48.316;16.174;2023-06-14T05:45:12;18.60;99.90
38860;DHT22;24609;48.316;16.174;2023-06-14T05:47:38;18.70;99.90
38860;DHT22;24609;48.316;16.174;2023-06-14T05:50:04;18.60;99.90
38860;DHT22;24609;48.316;16.174;2023-06-14T05:52:29;18.70;99.90
38860;DHT22;24609;48.316;16.174;2023-06-14T05:54:56;19.10;99.90
38860;DHT22;24609;48.316;16.174;2023-06-14T05:57:22;19.20;99.90
38860;DHT22;24609;48.316;16.174;2023-06-14T05:59:48;19.40;99.90
38860;DHT22;24609;48.316;16.174;2023-06-14T06:02:13;19.90;99.90
38860;DHT22;24609;48.316;16.174;2023-06-14T06:04:39;20.30;99.90
38860;DHT22;24609;48.316;16.174;2023-06-14T06:07:05;20.60;99.90
38860;DHT22;24609;48.316;16.174;2023-06-14T06:09:31;20.40;99.90
38860;DHT22;24609;48.316;16.174;2023-06-14T06:11:56;20.80;99.90
38860;DHT22;24609;48.316;16.174;2023-06-14T06:14:22;20.80;99.90
38860;DHT22;24609;48.316;16.174;2023-06-14T06:16:48;20.90;99.90
38860;DHT22;24609;48.316;16.174;2023-06-14T06:19:13;21.60;99.90
38860;DHT22;24609;48.316;16.174;2023-06-14T06:21:39;21.30;99.90
38860;DHT22;24609;48.316;16.174;2023-06-14T06:24:05;21.20;99.90
38860;DHT22;24609;48.316;16.174;2023-06-14T06:26:31;21.70;99.90
38860;DHT22;24609;48.316;16.174;2023-06-14T06:28:58;22.30;98.60
38860;DHT22;24609;48.316;16.174;2023-06-14T06:31:24;21.70;98.40
38860;DHT22;24609;48.316;16.174;2023-06-14T06:33:51;22.10;96.60
38860;DHT22;24609;48.316;16.174;2023-06-14T06:36:16;21.60;95.50
38860;DHT22;24609;48.316;16.174;2023-06-14T06:38:42;21.80;96.80
38860;DHT22;24609;48.316;16.174;2023-06-14T06:41:08;22.30;97.20
38860;DHT22;24609;48.316;16.174;2023-06-14T06:43:33;23.00;94.90
38860;DHT22;24609;48.316;16.174;2023-06-14T06:45:59;23.50;94.70
38860;DHT22;24609;48.316;16.174;2023-06-14T06:48:25;24.00;92.40
38860;DHT22;24609;48.316;16.174;2023-06-14T06:50:50;23.10;90.40
38860;DHT22;24609;48.316;16.174;2023-06-14T06:53:17;22.20;92.60
38860;DHT22;24609;48.316;16.174;2023-06-14T06:55:44;22.10;93.90
38860;DHT22;24609;48.316;16.174;2023-06-14T06:58:10;22.00;94.00
38860;DHT22;24609;48.316;16.174;2023-06-14T07:00:36;21.80;91.70
38860;DHT22;24609;48.316;16.174;2023-06-14T07:03:01;21.70;93.90
38860;DHT22;24609;48.316;16.174;2023-06-14T07:05:29;21.70;94.40
38860;DHT22;24609;48.316;16.174;2023-06-14T07:07:56;22.00;93.20
38860;DHT22;24609;48.316;16.174;2023-06-14T07:10:22;21.90;93.80
38860;DHT22;24609;48.316;16.174;2023-06-14T07:12:47;22.00;91.80
38860;DHT22;24609;48.316;16.174;2023-06-14T07:15:13;21.70;92.50
38860;DHT22;24609;48.316;16.174;2023-06-14T07:17:39;21.50;93.00
38860;DHT22;24609;48.316;16.174;2023-06-14T07:20:05;21.50;93.60
38860;DHT22;24609;48.316;16.174;2023-06-14T07:22:40;21.10;95.00
38860;DHT22;24609;48.316;16.174;2023-06-14T07:25:10;21.30;92.80
38860;DHT22;24609;48.316;16.174;2023-06-14T07:27:40;21.20;92.50
38860;DHT22;24609;48.316;16.174;2023-06-14T07:30:07;21.70;94.00
38860;DHT22;24609;48.316;16.174;2023-06-14T07:32:33;22.20;93.70
38860;DHT22;24609;48.316;16.174;2023-06-14T07:34:59;22.30;91.80
38860;DHT22;24609;48.316;16.174;2023-06-14T07:37:24;22.50;91.80
38860;DHT22;24609;48.316;16.174;2023-06-14T07:39:50;22.40;91.90
38860;DHT22;24609;48.316;16.174;2023-06-14T07:42:16;21.70;92.10
38860;DHT22;24609;48.316;16.174;2023-06-14T07:44:42;22.00;92.30
38860;DHT22;24609;48.316;16.174;2023-06-14T07:47:07;22.40;92.30
38860;DHT22;24609;48.316;16.174;2023-06-14T07:49:33;22.30;91.00
38860;DHT22;24609;48.316;16.174;2023-06-14T07:51:59;22.80;90.90
38860;DHT22;24609;48.316;16.174;2023-06-14T07:54:24;23.10;92.00
38860;DHT22;24609;48.316;16.174;2023-06-14T07:56:52;23.10;91.30
38860;DHT22;24609;48.316;16.174;2023-06-14T07:59:18;22.70;89.10
38860;DHT22;24609;48.316;16.174;2023-06-14T08:01:43;23.50;90.50
38860;DHT22;24609;48.316;16.174;2023-06-14T08:04:16;24.40;87.70
38860;DHT22;24609;48.316;16.174;2023-06-14T08:06:42;23.80;86.00
38860;DHT22;24609;48.316;16.174;2023-06-14T08:09:12;25.00;84.80
38860;DHT22;24609;48.316;16.174;2023-06-14T08:11:38;25.80;82.00
38860;DHT22;24609;48.316;16.174;2023-06-14T08:14:04;26.00;77.80
38860;DHT22;24609;48.316;16.174;2023-06-14T08:16:29;26.80;75.20
38860;DHT22;24609;48.316;16.174;2023-06-14T08:18:55;26.90;76.40
38860;DHT22;24609;48.316;16.174;2023-06-14T08:21:21;28.50;67.40
38860;DHT22;24609;48.316;16.174;2023-06-14T08:23:47;27.00;65.20
38860;DHT22;24609;48.316;16.174;2023-06-14T08:26:13;27.80;63.30
38860;DHT22;24609;48.316;16.174;2023-06-14T08:28:38;28.30;63.20
38860;DHT22;24609;48.316;16.174;2023-06-14T08:31:04;29.10;62.60
38860;DHT22;24609;48.316;16.174;2023-06-14T08:33:30;28.90;56.30
38860;DHT22;24609;48.316;16.174;2023-06-14T08:35:58;26.80;58.50
38860;DHT22;24609;48.316;16.174;2023-06-14T08:38:24;25.90;58.50
38860;DHT22;24609;48.316;16.174;2023-06-14T08:40:50;27.80;58.10
38860;DHT22;24609;48.316;16.174;2023-06-14T08:43:17;29.80;53.50
38860;DHT22;24609;48.316;16.174;2023-06-14T08:45:45;31.00;57.20
38860;DHT22;24609;48.316;16.174;2023-06-14T08:48:12;31.30;49.60
38860;DHT22;24609;48.316;16.174;2023-06-14T08:50:40;31.90;46.40
38860;DHT22;24609;48.316;16.174;2023-06-14T08:53:08;29.90;47.90
38860;DHT22;24609;48.316;16.174;2023-06-14T08:55:38;29.40;49.50
38860;DHT22;24609;48.316;16.174;2023-06-14T08:58:05;31.50;46.10
38860;DHT22;24609;48.316;16.174;2023-06-14T09:00:31;32.30;45.70
38860;DHT22;24609;48.316;16.174;2023-06-14T09:02:58;32.50;43.90
38860;DHT22;24609;48.316;16.174;2023-06-14T09:05:28;31.50;45.80
38860;DHT22;24609;48.316;16.174;2023-06-14T09:07:54;32.00;44.50
38860;DHT22;24609;48.316;16.174;2023-06-14T09:10:22;32.30;42.70
38860;DHT22;24609;48.316;16.174;2023-06-14T09:12:48;33.00;40.30
38860;DHT22;24609;48.316;16.174;2023-06-14T09:15:14;33.20;38.10
38860;DHT22;24609;48.316;16.174;2023-06-14T09:17:41;32.70;37.50
38860;DHT22;24609;48.316;16.174;2023-06-14T09:20:08;31.80;38.70
38860;DHT22;24609;48.316;16.174;2023-06-14T09:22:43;31.80;39.20
38860;DHT22;24609;48.316;16.174;2023-06-14T09:25:09;33.60;37.60
38860;DHT22;24609;48.316;16.174;2023-06-14T09:27:35;34.20;38.60
38860;DHT22;24609;48.316;16.174;2023-06-14T09:30:05;33.00;38.40
38860;DHT22;24609;48.316;16.174;2023-06-14T09:32:37;34.30;36.20
38860;DHT22;24609;48.316;16.174;2023-06-14T09:35:04;34.60;35.00
38860;DHT22;24609;48.316;16.174;2023-06-14T09:37:31;34.90;32.90
38860;DHT22;24609;48.316;16.174;2023-06-14T09:39:57;33.60;33.30
38860;DHT22;24609;48.316;16.174;2023-06-14T09:42:24;34.30;32.40
38860;DHT22;24609;48.316;16.174;2023-06-14T09:44:55;35.10;31.80
38860;DHT22;24609;48.316;16.174;2023-06-14T09:47:23;34.90;31.00
38860;DHT22;24609;48.316;16.174;2023-06-14T09:49:51;34.80;31.80
38860;DHT22;24609;48.316;16.174;2023-06-14T09:52:20;35.00;30.30
38860;DHT22;24609;48.316;16.174;2023-06-14T09:54:47;32.30;32.30
38860;DHT22;24609;48.316;16.174;2023-06-14T09:57:23;28.80;36.80
38860;DHT22;24609;48.316;16.174;2023-06-14T09:59:53;28.00;39.60
38860;DHT22;24609;48.316;16.174;2023-06-14T10:02:29;30.20;35.70
38860;DHT22;24609;48.316;16.174;2023-06-14T10:05:08;31.20;34.20
38860;DHT22;24609;48.316;16.174;2023-06-14T10:07:44;32.10;33.90
38860;DHT22;24609;48.316;16.174;2023-06-14T10:10:10;32.30;31.80
38860;DHT22;24609;48.316;16.174;2023-06-14T10:12:36;28.70;37.10
38860;DHT22;24609;48.316;16.174;2023-06-14T10:15:03;28.70;40.20
38860;DHT22;24609;48.316;16.174;2023-06-14T10:20:30;35.20;29.40
38860;DHT22;24609;48.316;16.174;2023-06-14T10:25:33;31.90;33.10
38860;DHT22;24609;48.316;16.174;2023-06-14T10:28:14;30.80;31.70
38860;DHT22;24609;48.316;16.174;2023-06-14T10:33:29;30.50;33.30
38860;DHT22;24609;48.316;16.174;2023-06-14T10:36:26;27.70;37.20
38860;DHT22;24609;48.316;16.174;2023-06-14T10:39:10;28.30;37.10
38860;DHT22;24609;48.316;16.174;2023-06-14T10:41:38;27.50;38.60
38860;DHT22;24609;48.316;16.174;2023-06-14T10:46:39;29.00;35.70
38860;DHT22;24609;48.316;16.174;2023-06-14T10:49:06;27.50;37.10
38860;DHT22;24609;48.316;16.174;2023-06-14T10:51:45;25.90;41.00
38860;DHT22;24609;48.316;16.174;2023-06-14T10:54:15;28.50;37.50
38860;DHT22;24609;48.316;16.174;2023-06-14T10:56:50;28.30;37.60
38860;DHT22;24609;48.316;16.174;2023-06-14T10:59:17;27.30;40.10
38860;DHT22;24609;48.316;16.174;2023-06-14T11:02:13;27.20;37.50
38860;DHT22;24609;48.316;16.174;2023-06-14T11:04:51;32.10;32.70
38860;DHT22;24609;48.316;16.174;2023-06-14T11:07:48;35.50;29.70
38860;DHT22;24609;48.316;16.174;2023-06-14T11:10:37;37.70;26.60
38860;DHT22;24609;48.316;16.174;2023-06-14T11:13:03;36.60;26.50
38860;DHT22;24609;48.316;16.174;2023-06-14T11:15:30;38.50;26.70
38860;DHT22;24609;48.316;16.174;2023-06-14T11:17:57;37.70;25.60
38860;DHT22;24609;48.316;16.174;2023-06-14T11:20:27;37.30;27.20
38860;DHT22;24609;48.316;16.174;2023-06-14T11:22:53;35.10;26.60
38860;DHT22;24609;48.316;16.174;2023-06-14T11:25:20;35.30;28.80
38860;DHT22;24609;48.316;16.174;2023-06-14T11:27:46;35.50;29.00
38860;DHT22;24609;48.316;16.174;2023-06-14T11:30:14;31.40;30.80
38860;DHT22;24609;48.316;16.174;2023-06-14T11:32:40;28.20;33.40
38860;DHT22;24609;48.316;16.174;2023-06-14T11:35:07;26.20;37.90
38860;DHT22;24609;48.316;16.174;2023-06-14T11:37:35;25.20;39.80
38860;DHT22;24609;48.316;16.174;2023-06-14T11:40:04;24.80;40.30
38860;DHT22;24609;48.316;16.174;2023-06-14T11:42:35;25.20;40.50
38860;DHT22;24609;48.316;16.174;2023-06-14T11:45:02;26.10;39.60
38860;DHT22;24609;48.316;16.174;2023-06-14T11:47:39;26.40;40.00
38860;DHT22;24609;48.316;16.174;2023-06-14T11:50:08;30.60;35.90
38860;DHT22;24609;48.316;16.174;2023-06-14T11:52:37;35.20;28.70
38860;DHT22;24609;48.316;16.174;2023-06-14T11:55:03;37.20;25.70
38860;DHT22;24609;48.316;16.174;2023-06-14T11:57:35;36.10;25.80
38860;DHT22;24609;48.316;16.174;2023-06-14T12:00:06;33.70;29.90
38860;DHT22;24609;48.316;16.174;2023-06-14T12:02:38;33.00;28.10
38860;DHT22;24609;48.316;16.174;2023-06-14T12:05:06;35.20;27.30
38860;DHT22;24609;48.316;16.174;2023-06-14T12:07:38;35.10;27.50
38860;DHT22;24609;48.316;16.174;2023-06-14T12:10:07;37.30;26.40
38860;DHT22;24609;48.316;16.174;2023-06-14T12:12:38;37.20;25.90
38860;DHT22;24609;48.316;16.174;2023-06-14T12:15:05;34.60;30.00
38860;DHT22;24609;48.316;16.174;2023-06-14T12:17:38;36.60;27.20
38860;DHT22;24609;48.316;16.174;2023-06-14T12:20:14;34.60;25.00
38860;DHT22;24609;48.316;16.174;2023-06-14T12:22:52;36.30;27.60
38860;DHT22;24609;48.316;16.174;2023-06-14T12:25:33;37.70;25.10
38860;DHT22;24609;48.316;16.174;2023-06-14T12:28:07;38.30;24.70
38860;DHT22;24609;48.316;16.174;2023-06-14T12:30:34;35.00;27.40
38860;DHT22;24609;48.316;16.174;2023-06-14T12:33:01;31.10;30.00
38860;DHT22;24609;48.316;16.174;2023-06-14T12:35:27;28.30;33.50
38860;DHT22;24609;48.316;16.174;2023-06-14T12:37:53;28.30;37.20
38860;DHT22;24609;48.316;16.174;2023-06-14T12:40:19;32.10;31.10
38860;DHT22;24609;48.316;16.174;2023-06-14T12:42:45;33.80;29.60
38860;DHT22;24609;48.316;16.174;2023-06-14T12:45:12;31.10;30.70
38860;DHT22;24609;48.316;16.174;2023-06-14T12:47:39;28.30;35.30
38860;DHT22;24609;48.316;16.174;2023-06-14T12:50:05;26.40;36.20
38860;DHT22;24609;48.316;16.174;2023-06-14T12:52:34;25.50;40.50
38860;DHT22;24609;48.316;16.174;2023-06-14T12:55:04;24.90;39.60
38860;DHT22;24609;48.316;16.174;2023-06-14T12:57:29;24.80;41.90
38860;DHT22;24609;48.316;16.174;2023-06-14T12:59:55;25.40;42.50
38860;DHT22;24609;48.316;16.174;2023-06-14T13:02:21;29.10;35.50
38860;DHT22;24609;48.316;16.174;2023-06-14T13:04:49;34.30;29.50
38860;DHT22;24609;48.316;16.174;2023-06-14T13:07:15;38.10;26.00
38860;DHT22;24609;48.316;16.174;2023-06-14T13:09:42;38.20;24.30
38860;DHT22;24609;48.316;16.174;2023-06-14T13:12:09;36.80;27.70
38860;DHT22;24609;48.316;16.174;2023-06-14T13:14:36;36.70;25.90
38860;DHT22;24609;48.316;16.174;2023-06-14T13:17:02;36.60;25.10
38860;DHT22;24609;48.316;16.174;2023-06-14T13:19:28;36.50;26.00
38860;DHT22;24609;48.316;16.174;2023-06-14T13:21:54;39.20;26.30
38860;DHT22;24609;48.316;16.174;2023-06-14T13:24:19;40.10;23.20
38860;DHT22;24609;48.316;16.174;2023-06-14T13:26:45;39.20;24.30
38860;DHT22;24609;48.316;16.174;2023-06-14T13:29:11;38.40;24.90
38860;DHT22;24609;48.316;16.174;2023-06-14T13:31:36;38.70;23.90
38860;DHT22;24609;48.316;16.174;2023-06-14T13:34:02;38.30;23.40
38860;DHT22;24609;48.316;16.174;2023-06-14T13:36:28;39.60;24.20
38860;DHT22;24609;48.316;16.174;2023-06-14T13:38:55;38.40;23.20
38860;DHT22;24609;48.316;16.174;2023-06-14T13:41:21;38.00;23.00
38860;DHT22;24609;48.316;16.174;2023-06-14T13:43:47;38.20;23.10
38860;DHT22;24609;48.316;16.174;2023-06-14T13:46:13;38.40;23.60
38860;DHT22;24609;48.316;16.174;2023-06-14T13:48:38;37.30;23.90
38860;DHT22;24609;48.316;16.174;2023-06-14T13:51:04;39.00;22.90
38860;DHT22;24609;48.316;16.174;2023-06-14T13:53:30;37.50;23.30
38860;DHT22;24609;48.316;16.174;2023-06-14T13:55:56;38.60;24.80
38860;DHT22;24609;48.316;16.174;2023-06-14T13:58:22;39.80;23.30
38860;DHT22;24609;48.316;16.174;2023-06-14T14:00:48;38.90;22.60
38860;DHT22;24609;48.316;16.174;2023-06-14T14:03:14;38.20;23.00
38860;DHT22;24609;48.316;16.174;2023-06-14T14:05:40;39.30;22.20
38860;DHT22;24609;48.316;16.174;2023-06-14T14:08:05;39.70;21.90
38860;DHT22;24609;48.316;16.174;2023-06-14T14:10:31;38.90;23.80
38860;DHT22;24609;48.316;16.174;2023-06-14T14:12:57;39.50;22.70
38860;DHT22;24609;48.316;16.174;2023-06-14T14:15:22;39.20;22.30
38860;DHT22;24609;48.316;16.174;2023-06-14T14:17:48;41.40;22.70
38860;DHT22;24609;48.316;16.174;2023-06-14T14:20:14;39.00;22.70
38860;DHT22;24609;48.316;16.174;2023-06-14T14:22:44;35.30;22.70
38860;DHT22;24609;48.316;16.174;2023-06-14T14:25:09;35.50;24.50
38860;DHT22;24609;48.316;16.174;2023-06-14T14:27:36;38.40;22.30
38860;DHT22;24609;48.316;16.174;2023-06-14T14:30:05;39.40;21.80
38860;DHT22;24609;48.316;16.174;2023-06-14T14:32:31;40.10;21.60
38860;DHT22;24609;48.316;16.174;2023-06-14T14:34:57;38.80;21.50
38860;DHT22;24609;48.316;16.174;2023-06-14T14:37:23;39.50;23.00
38860;DHT22;24609;48.316;16.174;2023-06-14T14:39:49;41.80;21.10
38860;DHT22;24609;48.316;16.174;2023-06-14T14:42:14;41.80;21.60
38860;DHT22;24609;48.316;16.174;2023-06-14T14:44:40;41.70;21.70
38860;DHT22;24609;48.316;16.174;2023-06-14T14:47:06;39.90;21.00
38860;DHT22;24609;48.316;16.174;2023-06-14T14:49:32;39.60;22.40
38860;DHT22;24609;48.316;16.174;2023-06-14T14:51:58;39.50;22.00
38860;DHT22;24609;48.316;16.174;2023-06-14T14:54:23;37.20;22.70
38860;DHT22;24609;48.316;16.174;2023-06-14T14:56:50;33.40;26.20
38860;DHT22;24609;48.316;16.174;2023-06-14T14:59:16;33.60;26.50
38860;DHT22;24609;48.316;16.174;2023-06-14T15:01:42;35.00;25.40
38860;DHT22;24609;48.316;16.174;2023-06-14T15:04:08;34.30;25.10
38860;DHT22;24609;48.316;16.174;2023-06-14T15:06:34;33.30;26.00
38860;DHT22;24609;48.316;16.174;2023-06-14T15:09:04;31.60;28.00
38860;DHT22;24609;48.316;16.174;2023-06-14T15:11:30;31.00;28.70
38860;DHT22;24609;48.316;16.174;2023-06-14T15:13:55;33.40;28.10
38860;DHT22;24609;48.316;16.174;2023-06-14T15:16:21;31.60;28.10
38860;DHT22;24609;48.316;16.174;2023-06-14T15:18:46;29.60;31.80
38860;DHT22;24609;48.316;16.174;2023-06-14T15:21:13;30.30;30.80
38860;DHT22;24609;48.316;16.174;2023-06-14T15:23:38;31.90;28.50
38860;DHT22;24609;48.316;16.174;2023-06-14T15:26:04;31.10;29.40
38860;DHT22;24609;48.316;16.174;2023-06-14T15:28:30;33.60;27.90
38860;DHT22;24609;48.316;16.174;2023-06-14T15:30:58;34.60;26.60
38860;DHT22;24609;48.316;16.174;2023-06-14T15:33:24;34.70;25.80
38860;DHT22;24609;48.316;16.174;2023-06-14T15:35:50;35.60;24.70
38860;DHT22;24609;48.316;16.174;2023-06-14T15:38:16;36.70;24.90
38860;DHT22;24609;48.316;16.174;2023-06-14T15:40:41;35.40;25.80